Terminal Aerodrome Forecast
Issued by NWS

Home | Current Version | Previous Version | Text Only | Print | Product List | Glossary On
Versions: 1 2 3 4 5 6 7 8 9 10 11 12 13 14 15 16 17 18 19
000
FTUS41 KPBZ 010532
TAFHLG
TAF
KHLG 010532Z 0106/0206 33006KT 5SM BR BKN007 OVC015
     FM010800 34005KT P6SM BKN008
     FM011000 34005KT P6SM BKN015
     FM011400 35007KT P6SM BKN025
     FM011900 35009KT P6SM SCT250=

USA.gov is the U.S. government's official web portal to all federal, state and local government web resources and services.